Time;durP1;ratioP1;P1;durP2;ratioP2;P2;SDS_P1;SDS_P2;PMS_P1;PMS_P2;Temp;Humidity;BMP_temperature;BMP_pressure;BME280_temperature;BME280_humidity;BME280_pressure;Samples;Min_cycle;Max_cycle;Signal;HPM_P1;HPM_P2
2022/04/15 00:01:37;;;;;;;;;;;;;;;6.68;54.75;95698.56;5075310;28;1004;-48
2022/04/15 00:04:03;;;;;;;;;;;;;;;6.64;55.41;95698.00;5075098;28;981;-48
2022/04/15 00:06:30;;;;;;;;;;;;;;;6.60;55.53;95702.72;5074881;28;1039;-48
2022/04/15 00:08:56;;;;;;;;;;;;;;;6.57;55.71;95699.44;5075128;28;1906;-48
2022/04/15 00:11:22;;;;;;;;;;;;;;;6.29;55.55;95700.81;5075326;28;1048;-48
2022/04/15 00:13:48;;;;;;;;;;;;;;;6.20;55.80;95703.22;5075087;28;1055;-48
2022/04/15 00:16:15;;;;;;;;;;;;;;;6.15;56.16;95702.72;5074909;28;1043;-48
2022/04/15 00:18:41;;;;;;;;;;;;;;;6.17;56.21;95703.47;5074852;28;1004;-48
2022/04/15 00:21:07;;;;;;;;;;;;;;;6.28;56.46;95712.38;5074751;28;1073;-48
2022/04/15 00:23:34;;;;;;;;;;;;;;;6.26;56.52;95707.22;5074641;28;1253;-48
2022/04/15 00:26:00;;;;;;;;;;;;;;;6.17;56.42;95710.59;5074455;28;1026;-48
2022/04/15 00:28:27;;;;;;;;;;;;;;;5.98;56.54;95711.19;5074717;28;1983;-48
2022/04/15 00:30:53;;;;;;;;;;;;;;;5.82;56.75;95703.50;5074653;28;1056;-48
2022/04/15 00:33:19;;;;;;;;;;;;;;;5.73;57.26;95706.88;5074415;28;1276;-48
2022/04/15 00:35:45;;;;;;;;;;;;;;;5.79;57.79;95711.72;5074343;28;1028;-48
2022/04/15 00:38:11;;;;;;;;;;;;;;;5.93;57.24;95705.34;5074286;28;956;-48
2022/04/15 00:40:37;;;;;;;;;;;;;;;6.12;56.17;95710.09;5074116;28;961;-48
2022/04/15 00:43:03;;;;;;;;;;;;;;;6.20;55.78;95707.66;5074364;28;961;-48
2022/04/15 00:45:29;;;;;;;;;;;;;;;6.28;55.62;95705.28;5074334;28;1057;-48
2022/04/15 00:47:56;;;;;;;;;;;;;;;6.36;55.54;95705.50;5074009;28;2004;-48
2022/04/15 00:50:23;;;;;;;;;;;;;;;6.32;56.20;95701.41;5074114;28;1044;-48
2022/04/15 00:52:50;;;;;;;;;;;;;;;6.29;56.55;95701.63;5072690;28;1020;-48
2022/04/15 00:55:17;;;;;;;;;;;;;;;6.02;55.99;95694.88;5073893;28;1036;-48
2022/04/15 00:57:44;;;;;;;;;;;;;;;5.82;56.52;95701.72;5074219;28;1033;-48
2022/04/15 01:00:14;;;;;;;;;;;;;;;5.62;56.83;95699.75;5074045;28;972;-48
2022/04/15 01:02:40;;;;;;;;;;;;;;;5.73;57.16;95694.47;5073914;28;1847;-48
2022/04/15 01:05:07;;;;;;;;;;;;;;;5.99;56.16;95692.44;5073763;28;934;-48
2022/04/15 01:07:46;;;;;;;;;;;;;;;6.08;56.68;95695.38;5073837;28;1989;-48
2022/04/15 01:10:13;;;;;;;;;;;;;;;5.78;57.57;95692.28;5074006;28;1004;-48
2022/04/15 01:12:41;;;;;;;;;;;;;;;5.43;58.15;95690.53;5072482;28;1056;-48
2022/04/15 01:15:09;;;;;;;;;;;;;;;5.04;58.77;95692.56;5073873;28;969;-48
2022/04/15 01:17:35;;;;;;;;;;;;;;;5.09;58.60;95692.22;5073922;28;1041;-48
2022/04/15 01:20:03;;;;;;;;;;;;;;;4.95;58.64;95680.00;5073727;28;1008;-48
2022/04/15 01:22:35;;;;;;;;;;;;;;;5.10;58.62;95680.66;5073419;28;982;-48
2022/04/15 01:25:01;;;;;;;;;;;;;;;5.31;58.41;95680.84;5073828;28;1007;-48
2022/04/15 01:27:28;;;;;;;;;;;;;;;5.63;57.47;95680.19;5073469;28;1983;-48
2022/04/15 01:29:54;;;;;;;;;;;;;;;5.67;57.87;95671.03;5073617;28;1120;-48
2022/04/15 01:32:20;;;;;;;;;;;;;;;5.78;58.08;95675.53;5073807;28;964;-49
2022/04/15 01:34:46;;;;;;;;;;;;;;;5.72;57.68;95678.66;5073276;28;1096;-49
2022/04/15 01:37:14;;;;;;;;;;;;;;;5.34;58.44;95677.13;5073579;28;964;-49
2022/04/15 01:39:40;;;;;;;;;;;;;;;5.21;59.29;95670.09;5073735;28;1095;-49
2022/04/15 01:42:10;;;;;;;;;;;;;;;5.24;58.67;95669.88;5073614;28;980;-49
2022/04/15 01:44:37;;;;;;;;;;;;;;;5.08;58.76;95670.19;5073285;28;1091;-49
2022/04/15 01:47:04;;;;;;;;;;;;;;;5.11;59.46;95671.75;5073180;28;2016;-49
2022/04/15 01:49:30;;;;;;;;;;;;;;;5.20;59.10;95680.84;5073220;28;1036;-48
2022/04/15 01:51:56;;;;;;;;;;;;;;;5.36;59.38;95668.09;5072596;28;1091;-49
2022/04/15 01:54:22;;;;;;;;;;;;;;;5.40;59.39;95674.84;5073496;28;1019;-49
2022/04/15 01:56:48;;;;;;;;;;;;;;;5.44;59.13;95673.66;5073392;28;991;-48
2022/04/15 01:59:14;;;;;;;;;;;;;;;5.22;59.38;95674.44;5073294;28;954;-48
2022/04/15 02:01:40;;;;;;;;;;;;;;;4.94;59.20;95680.97;5073234;28;968;-49
2022/04/15 02:04:06;;;;;;;;;;;;;;;4.86;60.12;95670.94;5073089;28;1095;-49
2022/04/15 02:06:32;;;;;;;;;;;;;;;4.94;59.58;95674.81;5073262;28;1102;-49
2022/04/15 02:08:58;;;;;;;;;;;;;;;5.10;59.81;95675.34;5073288;28;1991;-49
2022/04/15 02:11:24;;;;;;;;;;;;;;;5.07;59.81;95672.94;5073097;28;1044;-49
2022/04/15 02:13:50;;;;;;;;;;;;;;;5.09;59.66;95671.03;5073348;28;962;-50
2022/04/15 02:16:16;;;;;;;;;;;;;;;4.92;59.67;95668.78;5073274;28;1024;-49
2022/04/15 02:18:42;;;;;;;;;;;;;;;4.68;60.46;95669.63;5072952;28;1031;-49
2022/04/15 02:21:08;;;;;;;;;;;;;;;4.56;61.02;95662.59;5072872;28;1040;-49
2022/04/15 02:23:34;;;;;;;;;;;;;;;4.81;60.30;95661.63;5072889;28;1856;-49
2022/04/15 02:26:00;;;;;;;;;;;;;;;4.92;60.44;95660.84;5073230;28;1039;-49
2022/04/15 02:28:26;;;;;;;;;;;;;;;4.99;59.60;95664.69;5072961;28;1985;-49
2022/04/15 02:30:52;;;;;;;;;;;;;;;4.84;59.84;95664.06;5072950;28;980;-49
2022/04/15 02:33:18;;;;;;;;;;;;;;;4.81;59.99;95656.31;5072922;28;1259;-49
2022/04/15 02:35:44;;;;;;;;;;;;;;;4.88;60.64;95661.06;5073012;28;1019;-49
2022/04/15 02:38:10;;;;;;;;;;;;;;;4.96;60.81;95662.28;5072984;28;1063;-49
2022/04/15 02:40:37;;;;;;;;;;;;;;;5.00;60.18;95664.59;5072965;28;1043;-49
2022/04/15 02:43:03;;;;;;;;;;;;;;;4.91;60.47;95659.97;5072661;28;941;-49
2022/04/15 02:45:29;;;;;;;;;;;;;;;4.71;60.99;95663.28;5072814;28;957;-48
2022/04/15 02:47:56;;;;;;;;;;;;;;;4.59;60.83;95671.16;5072875;28;1894;-49
2022/04/15 02:50:22;;;;;;;;;;;;;;;4.42;61.18;95672.38;5072837;28;1046;-49
2022/04/15 02:52:49;;;;;;;;;;;;;;;4.41;61.33;95675.13;5072911;28;1004;-49
2022/04/15 02:55:15;;;;;;;;;;;;;;;4.52;61.48;95669.91;5072590;28;1008;-49
2022/04/15 02:57:41;;;;;;;;;;;;;;;4.65;61.55;95669.88;5072708;28;969;-48
2022/04/15 03:00:08;;;;;;;;;;;;;;;4.66;61.07;95664.44;5072606;28;1091;-49
2022/04/15 03:02:34;;;;;;;;;;;;;;;4.46;60.77;95673.84;5072865;28;1032;-49
2022/04/15 03:05:01;;;;;;;;;;;;;;;4.21;61.54;95672.13;5075129;28;992;-49
2022/04/15 03:07:27;;;;;;;;;;;;;;;4.22;62.43;95667.66;5076247;28;1906;-49
2022/04/15 03:09:53;;;;;;;;;;;;;;;4.20;61.96;95670.41;5076262;28;1027;-49
2022/04/15 03:12:19;;;;;;;;;;;;;;;4.28;62.27;95672.50;5076315;28;984;-49
2022/04/15 03:14:45;;;;;;;;;;;;;;;4.33;62.03;95669.56;5075956;28;1020;-49
2022/04/15 03:17:12;;;;;;;;;;;;;;;4.26;62.05;95669.13;5076146;28;965;-49
2022/04/15 03:19:38;;;;;;;;;;;;;;;4.21;62.35;95665.97;5075768;28;1004;-49
2022/04/15 03:22:05;;;;;;;;;;;;;;;4.30;61.94;95675.91;5075851;28;1122;-49
2022/04/15 03:24:31;;;;;;;;;;;;;;;4.38;61.55;95678.84;5075940;28;976;-49
2022/04/15 03:26:57;;;;;;;;;;;;;;;4.58;60.96;95677.41;5075754;28;1991;-49
2022/04/15 03:29:23;;;;;;;;;;;;;;;4.62;60.97;95683.31;5075753;28;1021;-49
2022/04/15 03:31:49;;;;;;;;;;;;;;;4.22;61.45;95686.19;5075959;28;1018;-49
2022/04/15 03:34:16;;;;;;;;;;;;;;;4.04;61.90;95683.03;5075229;28;1107;-49
2022/04/15 03:36:42;;;;;;;;;;;;;;;4.00;62.12;95682.41;5075729;28;1048;-48
2022/04/15 03:39:08;;;;;;;;;;;;;;;4.04;62.56;95693.63;5075698;28;960;-48
2022/04/15 03:41:34;;;;;;;;;;;;;;;4.15;62.18;95695.50;5075423;28;1037;-49
2022/04/15 03:44:01;;;;;;;;;;;;;;;4.04;62.27;95691.84;5075428;28;1012;-49
2022/04/15 03:46:27;;;;;;;;;;;;;;;3.89;62.29;95698.22;5075370;28;996;-48
2022/04/15 03:48:53;;;;;;;;;;;;;;;3.66;62.63;95698.00;5075231;28;1989;-48
2022/04/15 03:51:19;;;;;;;;;;;;;;;3.55;63.27;95697.03;5075397;28;1060;-48
2022/04/15 03:53:45;;;;;;;;;;;;;;;3.46;63.26;95701.16;5075382;28;1155;-48
2022/04/15 03:56:11;;;;;;;;;;;;;;;3.39;63.30;95703.34;5075482;28;970;-49
2022/04/15 03:58:37;;;;;;;;;;;;;;;3.47;63.47;95702.81;5075408;28;1008;-49
2022/04/15 04:01:03;;;;;;;;;;;;;;;3.66;63.16;95698.00;5075077;28;1089;-49
2022/04/15 04:03:29;;;;;;;;;;;;;;;3.60;62.93;95705.50;5074973;28;965;-49
2022/04/15 04:05:55;;;;;;;;;;;;;;;3.61;62.93;95700.09;5074857;28;1198;-49
2022/04/15 04:08:21;;;;;;;;;;;;;;;3.76;62.88;95707.94;5075071;28;1996;-49
2022/04/15 04:10:48;;;;;;;;;;;;;;;3.76;63.06;95706.13;5074887;28;1021;-49
2022/04/15 04:13:14;;;;;;;;;;;;;;;3.89;62.79;95706.16;5074761;28;1067;-49
2022/04/15 04:15:40;;;;;;;;;;;;;;;4.00;62.81;95711.50;5074762;28;1016;-49
2022/04/15 04:18:06;;;;;;;;;;;;;;;4.06;62.59;95713.75;5074684;28;1021;-48
2022/04/15 04:20:32;;;;;;;;;;;;;;;4.31;62.56;95717.31;5074647;28;1850;-49
2022/04/15 04:22:58;;;;;;;;;;;;;;;4.82;61.13;95708.38;5074807;28;1023;-49
2022/04/15 04:25:24;;;;;;;;;;;;;;;4.96;60.19;95725.91;5074901;28;928;-49
2022/04/15 04:27:50;;;;;;;;;;;;;;;5.04;60.13;95707.63;5074381;28;1989;-49
2022/04/15 04:30:16;;;;;;;;;;;;;;;5.03;60.44;95712.09;5074827;28;1038;-49
2022/04/15 04:32:49;;;;;;;;;;;;;;;5.40;59.32;95714.63;5074251;28;1108;-49
2022/04/15 04:35:16;;;;;;;;;;;;;;;6.11;57.62;95716.34;5074304;28;1032;-49
2022/04/15 04:37:43;;;;;;;;;;;;;;;6.45;57.25;95719.88;5074291;28;1016;-49
2022/04/15 04:40:10;;;;;;;;;;;;;;;6.81;56.35;95725.84;5074336;28;1028;-49
2022/04/15 04:42:36;;;;;;;;;;;;;;;6.88;55.74;95728.88;5074374;28;1057;-49
2022/04/15 04:45:02;;;;;;;;;;;;;;;7.02;55.69;95724.13;5074432;28;997;-49
2022/04/15 04:47:28;;;;;;;;;;;;;;;7.57;54.78;95732.00;5074059;28;1910;-49
2022/04/15 04:49:55;;;;;;;;;;;;;;;7.78;54.13;95724.03;5074317;28;1052;-49
2022/04/15 04:52:23;;;;;;;;;;;;;;;8.33;53.28;95729.09;5074041;28;1088;-49
2022/04/15 04:54:49;;;;;;;;;;;;;;;9.24;50.64;95739.81;5074044;28;1048;-49
2022/04/15 04:57:15;;;;;;;;;;;;;;;10.03;48.57;95735.28;5073903;28;1084;-49
2022/04/15 04:59:41;;;;;;;;;;;;;;;10.69;47.12;95737.91;5073888;28;1071;-49
2022/04/15 05:02:10;;;;;;;;;;;;;;;11.01;47.55;95736.63;5073813;28;1142;-48
2022/04/15 05:04:36;;;;;;;;;;;;;;;11.33;47.26;95735.31;5073792;28;1098;-49
2022/04/15 05:07:03;;;;;;;;;;;;;;;11.77;46.02;95743.44;5073690;28;1914;-49
2022/04/15 05:09:29;;;;;;;;;;;;;;;11.52;45.96;95743.19;5073747;28;1076;-49
2022/04/15 05:11:55;;;;;;;;;;;;;;;11.10;47.27;95734.91;5073717;28;985;-49
2022/04/15 05:14:21;;;;;;;;;;;;;;;10.55;49.67;95731.22;5073679;28;1048;-49
2022/04/15 05:16:47;;;;;;;;;;;;;;;10.11;51.00;95727.38;5073616;28;1040;-49
2022/04/15 05:19:13;;;;;;;;;;;;;;;9.91;50.83;95738.09;5073756;28;1033;-49
2022/04/15 05:21:39;;;;;;;;;;;;;;;9.76;50.63;95735.03;5073782;28;1117;-48
2022/04/15 05:24:06;;;;;;;;;;;;;;;9.85;48.85;95733.34;5073626;28;1951;-49
2022/04/15 05:26:33;;;;;;;;;;;;;;;9.86;48.79;95735.00;5072728;28;1080;-49
2022/04/15 05:29:00;;;;;;;;;;;;;;;9.79;49.37;95733.91;5073365;28;1985;-48
2022/04/15 05:31:26;;;;;;;;;;;;;;;9.80;49.03;95737.41;5072556;28;959;-48
2022/04/15 05:33:52;;;;;;;;;;;;;;;9.77;47.54;95735.88;5073185;28;1231;-49
2022/04/15 05:36:18;;;;;;;;;;;;;;;9.78;48.51;95730.38;5073602;28;969;-49
2022/04/15 05:38:44;;;;;;;;;;;;;;;9.97;49.30;95736.69;5073393;28;1032;-48
2022/04/15 05:41:10;;;;;;;;;;;;;;;10.18;48.87;95731.16;5073428;28;992;-48
2022/04/15 05:43:37;;;;;;;;;;;;;;;10.25;48.95;95734.13;5073271;28;1099;-48
2022/04/15 05:46:03;;;;;;;;;;;;;;;10.42;49.55;95736.06;5073332;28;1180;-49
2022/04/15 05:48:29;;;;;;;;;;;;;;;10.61;48.28;95739.66;5073088;28;2029;-49
2022/04/15 05:50:55;;;;;;;;;;;;;;;10.66;48.31;95734.69;5073355;28;1020;-49
2022/04/15 05:53:21;;;;;;;;;;;;;;;10.69;47.09;95732.56;5073268;28;1020;-49
2022/04/15 05:55:47;;;;;;;;;;;;;;;10.85;47.99;95737.28;5073350;28;1119;-49
2022/04/15 05:58:13;;;;;;;;;;;;;;;11.06;46.60;95734.38;5073199;28;1036;-49
2022/04/15 06:00:39;;;;;;;;;;;;;;;11.06;46.30;95731.69;5073127;28;1044;-49
2022/04/15 06:03:07;;;;;;;;;;;;;;;11.24;48.33;95736.22;5073087;28;1131;-49
2022/04/15 06:05:33;;;;;;;;;;;;;;;11.67;47.17;95732.81;5073486;28;1044;-48
2022/04/15 06:07:59;;;;;;;;;;;;;;;11.86;46.65;95725.59;5073302;28;1992;-49
2022/04/15 06:10:25;;;;;;;;;;;;;;;12.09;45.51;95721.44;5073023;28;1025;-49
2022/04/15 06:13:06;;;;;;;;;;;;;;;12.19;45.48;95725.88;5072986;28;1104;-49
2022/04/15 06:15:32;;;;;;;;;;;;;;;12.46;44.64;95724.88;5073381;28;958;-49
2022/04/15 06:17:59;;;;;;;;;;;;;;;12.82;44.96;95722.03;5072021;28;1081;-49
2022/04/15 06:20:25;;;;;;;;;;;;;;;13.14;44.59;95725.84;5073139;28;965;-49
2022/04/15 06:22:51;;;;;;;;;;;;;;;13.57;42.89;95721.28;5072938;28;1054;-49
2022/04/15 06:25:18;;;;;;;;;;;;;;;13.79;42.68;95725.16;5073208;28;1004;-48
2022/04/15 06:27:44;;;;;;;;;;;;;;;13.88;41.71;95720.66;5073087;28;1930;-49
2022/04/15 06:30:10;;;;;;;;;;;;;;;14.00;41.75;95724.66;5073165;28;1012;-49
2022/04/15 06:32:37;;;;;;;;;;;;;;;14.33;40.43;95730.03;5072976;28;1790;-49
2022/04/15 06:35:04;;;;;;;;;;;;;;;14.54;40.61;95721.41;5072983;28;1019;-49
2022/04/15 06:37:30;;;;;;;;;;;;;;;14.98;39.64;95721.81;5074738;28;1123;-49
2022/04/15 06:39:56;;;;;;;;;;;;;;;15.21;38.06;95727.28;5076901;28;1036;-49
2022/04/15 06:42:27;;;;;;;;;;;;;;;15.62;38.88;95727.03;5076493;28;1079;-49
2022/04/15 06:44:54;;;;;;;;;;;;;;;16.23;37.95;95723.56;5075304;28;1020;-49
2022/04/15 06:47:20;;;;;;;;;;;;;;;16.78;35.04;95714.25;5076432;28;1910;-49
2022/04/15 06:49:46;;;;;;;;;;;;;;;17.66;34.77;95721.59;5076776;28;1007;-49
2022/04/15 06:52:13;;;;;;;;;;;;;;;19.21;32.83;95726.22;5076363;28;1116;-49
2022/04/15 06:54:39;;;;;;;;;;;;;;;21.36;28.85;95720.81;5076399;28;1020;-49
2022/04/15 06:57:06;;;;;;;;;;;;;;;23.61;25.84;95723.09;5076307;28;1083;-50
2022/04/15 06:59:32;;;;;;;;;;;;;;;25.71;24.43;95725.59;5076296;28;1082;-50
2022/04/15 07:01:59;;;;;;;;;;;;;;;27.00;22.21;95712.34;5076359;28;999;-51
2022/04/15 07:04:25;;;;;;;;;;;;;;;27.72;21.38;95724.34;5076212;28;1084;-51
2022/04/15 07:06:51;;;;;;;;;;;;;;;27.45;21.95;95712.19;5076485;28;1048;-50
2022/04/15 07:09:17;;;;;;;;;;;;;;;27.30;22.35;95711.97;5076035;28;1910;-50
2022/04/15 07:11:43;;;;;;;;;;;;;;;26.19;22.79;95712.59;5076055;28;1219;-50
2022/04/15 07:14:09;;;;;;;;;;;;;;;24.58;24.90;95701.16;5076141;28;964;-50
2022/04/15 07:16:35;;;;;;;;;;;;;;;23.13;26.42;95709.16;5075962;28;1040;-50
2022/04/15 07:19:05;;;;;;;;;;;;;;;21.93;28.74;95701.94;5076012;28;969;-49
2022/04/15 07:21:31;;;;;;;;;;;;;;;21.01;29.99;95712.13;5075952;28;953;-49
2022/04/15 07:23:57;;;;;;;;;;;;;;;20.53;30.00;95702.34;5075997;28;1044;-49
2022/04/15 07:26:23;;;;;;;;;;;;;;;20.28;31.18;95702.97;5076066;28;964;-49
2022/04/15 07:28:49;;;;;;;;;;;;;;;20.48;31.00;95699.41;5075900;28;1906;-49
2022/04/15 07:31:15;;;;;;;;;;;;;;;20.34;30.12;95695.88;5075667;28;1091;-49
2022/04/15 07:33:41;;;;;;;;;;;;;;;19.99;32.19;95700.63;5075445;28;1257;-49
2022/04/15 07:38:52;;;;;;;;;;;;;;;20.19;30.27;95693.34;5075913;28;966;-49
2022/04/15 07:41:18;;;;;;;;;;;;;;;20.24;30.49;95693.56;5075525;28;1837;-49
2022/04/15 07:43:45;;;;;;;;;;;;;;;20.34;30.68;95687.72;5075426;28;981;-49
2022/04/15 07:46:11;;;;;;;;;;;;;;;20.25;31.09;95678.94;5075721;28;988;-49
2022/04/15 07:48:37;;;;;;;;;;;;;;;20.46;31.92;95677.88;5074532;28;1902;-49
2022/04/15 07:51:03;;;;;;;;;;;;;;;20.36;30.97;95669.34;5075621;28;1183;-49
2022/04/15 07:53:29;;;;;;;;;;;;;;;20.34;31.33;95673.31;5075540;28;1166;-49
2022/04/15 07:55:55;;;;;;;;;;;;;;;20.42;32.03;95668.50;5075187;28;1033;-49
2022/04/15 07:58:21;;;;;;;;;;;;;;;20.51;32.14;95668.28;5075530;28;1032;-49
2022/04/15 08:00:47;;;;;;;;;;;;;;;20.54;31.38;95673.28;5075174;28;1041;-49
2022/04/15 08:03:13;;;;;;;;;;;;;;;20.27;30.41;95674.13;5075108;28;968;-49
2022/04/15 08:05:39;;;;;;;;;;;;;;;20.22;31.66;95670.38;5075362;28;1029;-49
2022/04/15 08:08:05;;;;;;;;;;;;;;;20.04;31.52;95660.97;5075065;28;1910;-49
2022/04/15 08:10:31;;;;;;;;;;;;;;;20.09;32.48;95661.19;5075209;28;1052;-49
2022/04/15 08:12:57;;;;;;;;;;;;;;;20.30;31.87;95659.31;5075054;28;1036;-49
2022/04/15 08:15:23;;;;;;;;;;;;;;;20.01;33.54;95653.25;5075092;28;1056;-49
2022/04/15 08:17:49;;;;;;;;;;;;;;;19.89;31.61;95657.63;5074983;28;966;-48
2022/04/15 08:20:15;;;;;;;;;;;;;;;19.89;32.09;95654.91;5075069;28;1000;-48
2022/04/15 08:22:41;;;;;;;;;;;;;;;20.17;33.55;95641.16;5075198;28;1044;-48
2022/04/15 08:25:07;;;;;;;;;;;;;;;20.32;32.85;95640.94;5074630;28;944;-48
2022/04/15 08:27:33;;;;;;;;;;;;;;;20.27;32.31;95638.00;5074723;28;1989;-48
2022/04/15 08:29:59;;;;;;;;;;;;;;;20.44;33.39;95638.41;5075165;28;1012;-49
2022/04/15 08:32:32;;;;;;;;;;;;;;;20.60;32.79;95635.28;5074406;28;1914;-48
2022/04/15 08:35:02;;;;;;;;;;;;;;;20.67;33.81;95637.97;5074339;28;1100;-49
2022/04/15 08:37:28;;;;;;;;;;;;;;;20.63;33.13;95626.69;5074366;28;1849;-48
2022/04/15 08:39:54;;;;;;;;;;;;;;;20.65;33.45;95629.22;5074270;28;1092;-48
2022/04/15 08:42:21;;;;;;;;;;;;;;;20.62;34.30;95618.75;5074469;28;1028;-48
2022/04/15 08:44:51;;;;;;;;;;;;;;;21.04;33.96;95616.56;5074576;28;985;-48
2022/04/15 08:47:17;;;;;;;;;;;;;;;21.18;33.53;95607.28;5074347;28;1913;-48
2022/04/15 08:49:43;;;;;;;;;;;;;;;21.42;32.78;95613.03;5074107;28;1032;-48
2022/04/15 08:52:10;;;;;;;;;;;;;;;21.46;33.40;95603.41;5074392;28;949;-48
2022/04/15 08:54:36;;;;;;;;;;;;;;;21.39;33.03;95597.16;5074109;28;1040;-48
2022/04/15 08:57:02;;;;;;;;;;;;;;;21.53;32.63;95590.63;5074042;28;1833;-48
2022/04/15 08:59:28;;;;;;;;;;;;;;;21.47;32.66;95588.75;5089651;28;1069;-48
2022/04/15 09:01:54;;;;;;;;;;;;;;;21.31;32.86;95581.91;5073946;28;1048;-49
2022/04/15 09:04:20;;;;;;;;;;;;;;;21.42;32.96;95583.13;5073780;28;1095;-49
2022/04/15 09:06:54;;;;;;;;;;;;;;;21.46;32.32;95581.66;5074168;28;965;-48
2022/04/15 09:09:19;;;;;;;;;;;;;;;21.68;32.35;95567.69;5073754;28;1964;-48
2022/04/15 09:11:48;;;;;;;;;;;;;;;21.89;33.25;95558.31;5074061;28;1008;-48
2022/04/15 09:14:14;;;;;;;;;;;;;;;22.16;33.44;95567.09;5073691;28;1016;-48
2022/04/15 09:16:41;;;;;;;;;;;;;;;22.19;32.89;95558.47;5073652;28;1059;-48
2022/04/15 09:19:08;;;;;;;;;;;;;;;22.23;33.33;95548.78;5073542;28;1048;-49
2022/04/15 09:21:35;;;;;;;;;;;;;;;22.48;32.70;95554.25;5073962;28;1028;-48
2022/04/15 09:24:02;;;;;;;;;;;;;;;22.65;32.86;95548.16;5073756;28;966;-49
2022/04/15 09:26:27;;;;;;;;;;;;;;;22.91;33.49;95538.84;5073675;28;1052;-49
2022/04/15 09:28:54;;;;;;;;;;;;;;;22.93;31.33;95534.81;5073947;28;1910;-49
2022/04/15 09:31:21;;;;;;;;;;;;;;;22.83;33.37;95529.09;5073411;28;1012;-49
2022/04/15 09:37:10;;;;;;;;;;;;;;;22.90;32.13;95527.13;4712410;28;1781;-48
2022/04/15 09:39:36;;;;;;;;;;;;;;;22.65;31.34;95529.94;5073681;28;1033;-49
2022/04/15 09:42:03;;;;;;;;;;;;;;;22.83;32.46;95514.63;5073542;28;1106;-49
2022/04/15 09:44:32;;;;;;;;;;;;;;;22.97;31.90;95505.22;5073640;28;977;-49
2022/04/15 09:47:03;;;;;;;;;;;;;;;23.02;33.08;95508.09;5073432;28;1040;-49
2022/04/15 09:49:32;;;;;;;;;;;;;;;23.08;30.99;95503.63;5073298;28;1902;-48
2022/04/15 09:51:59;;;;;;;;;;;;;;;23.00;31.07;95497.41;5073270;28;1079;-49
2022/04/15 09:54:27;;;;;;;;;;;;;;;22.91;30.62;95497.97;5073266;28;996;-48
2022/04/15 09:56:53;;;;;;;;;;;;;;;22.70;31.30;95493.81;5073494;28;1012;-48
2022/04/15 09:59:21;;;;;;;;;;;;;;;22.86;32.06;95487.75;5073371;28;1018;-48
2022/04/15 10:01:48;;;;;;;;;;;;;;;23.04;32.13;95483.34;5073346;28;973;-49
2022/04/15 10:04:14;;;;;;;;;;;;;;;23.10;32.03;95466.88;5073166;28;980;-49
2022/04/15 10:06:41;;;;;;;;;;;;;;;23.14;32.37;95469.97;5073223;28;1036;-49
2022/04/15 10:09:11;;;;;;;;;;;;;;;23.22;30.86;95463.34;5072955;28;1984;-48
2022/04/15 10:11:38;;;;;;;;;;;;;;;23.21;31.77;95462.53;5073869;28;977;-49
2022/04/15 10:14:04;;;;;;;;;;;;;;;23.26;30.43;95457.22;5077338;28;1053;-48
2022/04/15 10:16:32;;;;;;;;;;;;;;;23.25;32.04;95452.00;5077305;28;985;-48
2022/04/15 10:18:59;;;;;;;;;;;;;;;23.36;31.44;95453.91;5077117;28;1024;-48
2022/04/15 10:21:25;;;;;;;;;;;;;;;23.50;31.15;95451.81;5077461;28;1060;-48
2022/04/15 10:23:51;;;;;;;;;;;;;;;23.46;28.79;95437.78;5076824;28;1043;-49
2022/04/15 10:26:18;;;;;;;;;;;;;;;23.42;29.66;95427.59;5076894;28;1093;-49
2022/04/15 10:28:46;;;;;;;;;;;;;;;23.45;30.19;95433.41;5075929;28;1988;-49
2022/04/15 10:31:15;;;;;;;;;;;;;;;23.60;29.64;95432.97;5076722;28;1053;-49
2022/04/15 10:33:41;;;;;;;;;;;;;;;23.60;30.00;95427.50;5076765;28;1033;-49
2022/04/15 10:36:10;;;;;;;;;;;;;;;23.63;29.05;95420.72;5076619;28;1626;-49
2022/04/15 10:38:36;;;;;;;;;;;;;;;23.68;27.61;95421.69;5076612;28;957;-49
2022/04/15 10:41:16;;;;;;;;;;;;;;;23.73;27.03;95415.50;5076969;28;1076;-49
2022/04/15 10:43:55;;;;;;;;;;;;;;;23.71;27.47;95413.03;5076645;28;1067;-48
2022/04/15 10:46:27;;;;;;;;;;;;;;;23.81;25.68;95406.16;5076720;28;1048;-48
2022/04/15 10:48:53;;;;;;;;;;;;;;;23.90;24.39;95405.59;5076410;28;1906;-49
2022/04/15 10:51:25;;;;;;;;;;;;;;;24.00;23.47;95404.97;5076418;28;1033;-49
2022/04/15 10:53:52;;;;;;;;;;;;;;;23.83;24.53;95398.56;5076704;28;952;-49
2022/04/15 10:56:23;;;;;;;;;;;;;;;23.71;22.66;95395.81;5076513;28;985;-49
2022/04/15 11:02:00;;;;;;;;;;;;;;;23.55;22.20;95384.53;5076546;28;981;-48
2022/04/15 11:04:26;;;;;;;;;;;;;;;23.49;22.63;95380.03;5076423;28;1033;-49
2022/04/15 11:06:54;;;;;;;;;;;;;;;23.53;22.59;95378.47;5075230;28;999;-49
2022/04/15 11:09:21;;;;;;;;;;;;;;;23.52;21.67;95381.44;5075145;28;1902;-49
2022/04/15 11:11:50;;;;;;;;;;;;;;;23.50;21.25;95380.84;5076103;28;999;-49
2022/04/15 11:14:17;;;;;;;;;;;;;;;23.55;21.06;95376.34;5076253;28;949;-49
2022/04/15 11:16:44;;;;;;;;;;;;;;;23.57;22.08;95366.03;5075890;28;1938;-49
2022/04/15 11:19:11;;;;;;;;;;;;;;;23.64;21.95;95374.09;5075892;28;1052;-48
2022/04/15 11:21:39;;;;;;;;;;;;;;;23.67;21.79;95378.25;5075887;28;1844;-49
2022/04/15 11:24:12;;;;;;;;;;;;;;;23.66;23.59;95371.97;5074663;28;983;-48
2022/04/15 11:26:44;;;;;;;;;;;;;;;23.66;22.72;95366.50;5076045;28;1032;-49
2022/04/15 11:29:11;;;;;;;;;;;;;;;23.62;23.08;95364.47;5075877;28;1902;-48
2022/04/15 11:31:38;;;;;;;;;;;;;;;23.61;23.73;95368.28;5075693;28;1025;-48
2022/04/15 11:34:13;;;;;;;;;;;;;;;23.65;22.19;95358.53;5075800;28;1056;-48
2022/04/15 11:36:43;;;;;;;;;;;;;;;23.69;21.84;95366.00;5075467;28;1257;-49
2022/04/15 11:39:13;;;;;;;;;;;;;;;23.83;23.04;95353.00;5075615;28;1041;-48
2022/04/15 11:41:44;;;;;;;;;;;;;;;23.90;23.09;95350.13;5075801;28;1165;-48
2022/04/15 12:22:01;;;;;;;;;;;;;;;22.66;22.24;95294.50;4904852;27;1300679;-49
2022/04/15 12:24:30;;;;;;;;;;;;;;;23.06;23.94;95282.97;5152341;27;1067;-49
2022/04/15 12:27:04;;;;;;;;;;;;;;;23.39;24.17;95278.81;5152482;27;1043;-48
2022/04/15 12:29:51;;;;;;;;;;;;;;;23.61;21.98;95275.50;5152532;27;1023;-49
2022/04/15 12:32:24;;;;;;;;;;;;;;;23.67;22.66;95272.63;5152511;27;1043;-49
2022/04/15 12:34:59;;;;;;;;;;;;;;;23.62;22.24;95268.94;5152507;27;973;-49
2022/04/15 12:37:35;;;;;;;;;;;;;;;23.62;22.66;95260.75;5151899;27;1909;-49
2022/04/15 12:40:02;;;;;;;;;;;;;;;23.70;23.77;95253.03;5152302;27;1169;-49
2022/04/15 12:42:32;;;;;;;;;;;;;;;23.75;23.55;95255.03;5152014;27;1078;-49
2022/04/15 12:44:59;;;;;;;;;;;;;;;23.80;22.10;95246.16;5152120;27;1074;-49
2022/04/15 12:47:28;;;;;;;;;;;;;;;23.78;22.20;95239.03;5151894;27;1051;-49
2022/04/15 12:49:54;;;;;;;;;;;;;;;23.79;23.33;95231.69;5151957;27;1023;-49
2022/04/15 12:52:20;;;;;;;;;;;;;;;23.81;22.29;95226.81;5151921;27;960;-49
2022/04/15 12:55:05;;;;;;;;;;;;;;;23.76;22.61;95218.50;5152070;27;998;-49
2022/04/15 12:57:33;;;;;;;;;;;;;;;23.63;21.72;95207.84;5151788;27;2024;-49
2022/04/15 12:59:59;;;;;;;;;;;;;;;23.60;23.14;95206.44;5151583;27;1064;-49
2022/04/15 13:02:27;;;;;;;;;;;;;;;23.64;23.07;95193.97;5151630;27;999;-49
2022/04/15 13:04:54;;;;;;;;;;;;;;;23.77;22.57;95203.75;5151551;27;1014;-49
2022/04/15 13:07:20;;;;;;;;;;;;;;;23.85;22.03;95197.97;5151610;27;1077;-49
2022/04/15 13:09:46;;;;;;;;;;;;;;;23.83;23.44;95196.53;5151698;27;983;-49
2022/04/15 13:12:13;;;;;;;;;;;;;;;23.78;23.77;95183.59;5151537;27;1036;-49
2022/04/15 13:14:39;;;;;;;;;;;;;;;23.80;23.52;95175.19;5151477;27;1023;-48
2022/04/15 13:17:05;;;;;;;;;;;;;;;23.77;22.48;95176.47;5151576;27;1998;-48
2022/04/15 13:19:31;;;;;;;;;;;;;;;23.82;22.37;95167.59;5151670;27;1031;-48
2022/04/15 13:21:57;;;;;;;;;;;;;;;23.81;22.39;95163.19;5151201;27;1269;-48
2022/04/15 13:24:23;;;;;;;;;;;;;;;23.72;22.54;95165.47;5151597;27;1034;-48
2022/04/15 13:26:49;;;;;;;;;;;;;;;23.66;21.63;95145.44;5151599;27;988;-48
2022/04/15 13:29:15;;;;;;;;;;;;;;;23.66;22.90;95144.59;5142197;27;964;-48
2022/04/15 13:31:41;;;;;;;;;;;;;;;23.62;22.70;95141.53;5137689;27;971;-49
2022/04/15 13:34:07;;;;;;;;;;;;;;;23.66;22.91;95131.78;5137241;27;945;-49
2022/04/15 13:36:34;;;;;;;;;;;;;;;23.70;21.87;95129.41;5137187;27;1996;-49
2022/04/15 13:39:00;;;;;;;;;;;;;;;23.68;22.24;95134.28;5137226;27;1044;-49
2022/04/15 13:41:26;;;;;;;;;;;;;;;23.70;22.74;95129.41;5137312;27;1035;-48
2022/04/15 13:43:53;;;;;;;;;;;;;;;23.73;22.59;95126.16;5137276;27;1026;-49
2022/04/15 13:46:19;;;;;;;;;;;;;;;23.76;22.03;95115.59;5137121;27;1083;-49
2022/04/15 13:48:46;;;;;;;;;;;;;;;23.78;22.05;95118.94;5137007;27;948;-49